createdAt,value
2019-02-18T00:00:29.865Z,56.60
2019-02-18T00:02:58.393Z,56.40
2019-02-18T00:05:27.041Z,56.50
2019-02-18T00:07:55.644Z,57.00
2019-02-18T00:10:25.767Z,57.30
2019-02-18T00:12:54.464Z,57.40
2019-02-18T00:15:23.073Z,57.60
2019-02-18T00:17:51.698Z,57.70
2019-02-18T00:20:20.242Z,57.70
2019-02-18T00:22:48.885Z,57.80
2019-02-18T00:25:17.409Z,58.30
2019-02-18T00:27:46.035Z,58.20
2019-02-18T00:30:14.801Z,57.80
2019-02-18T00:32:43.361Z,58.20
2019-02-18T00:35:12.048Z,58.30
2019-02-18T00:37:40.860Z,58.10
2019-02-18T00:40:10.298Z,58.40
2019-02-18T00:42:38.911Z,59.00
2019-02-18T00:45:12.258Z,59.00
2019-02-18T00:47:40.964Z,58.60
2019-02-18T00:50:10.593Z,58.60
2019-02-18T00:52:39.147Z,58.90
2019-02-18T00:55:08.722Z,59.30
2019-02-18T00:57:37.358Z,59.50
2019-02-18T01:00:09.519Z,58.90
2019-02-18T01:02:38.225Z,58.90
2019-02-18T01:05:07.706Z,58.50
2019-02-18T01:07:36.413Z,59.10
2019-02-18T01:10:07.731Z,59.20
2019-02-18T01:12:36.332Z,58.80
2019-02-18T01:15:07.685Z,58.30
2019-02-18T01:17:36.243Z,58.10
2019-02-18T01:20:07.554Z,58.80
2019-02-18T01:22:36.153Z,59.20
2019-02-18T01:25:06.392Z,58.60
2019-02-18T01:27:34.927Z,58.60
2019-02-18T01:30:04.811Z,58.50
2019-02-18T01:32:33.338Z,58.50
2019-02-18T01:35:01.922Z,59.00
2019-02-18T01:37:30.536Z,58.80
2019-02-18T01:39:59.233Z,59.30
2019-02-18T01:42:27.847Z,59.30
2019-02-18T01:44:56.537Z,60.00
2019-02-18T01:47:25.126Z,59.70
2019-02-18T01:49:53.765Z,60.30
2019-02-18T01:52:22.351Z,59.80
2019-02-18T01:54:50.961Z,59.70
2019-02-18T01:57:19.636Z,59.50
2019-02-18T01:59:48.141Z,60.00
2019-02-18T02:02:16.772Z,59.60
2019-02-18T02:04:45.390Z,59.90
2019-02-18T02:07:13.964Z,59.50
2019-02-18T02:09:42.662Z,59.90
2019-02-18T02:12:11.243Z,60.50
2019-02-18T02:14:39.767Z,60.40
2019-02-18T02:17:08.333Z,60.10
2019-02-18T02:19:37.118Z,60.40
2019-02-18T02:22:05.775Z,60.60
2019-02-18T02:24:34.306Z,60.90
2019-02-18T02:27:02.850Z,60.80
2019-02-18T02:29:31.691Z,61.20
2019-02-18T02:32:00.233Z,60.90
2019-02-18T02:34:28.794Z,60.80
2019-02-18T02:36:57.404Z,60.60
2019-02-18T02:39:26.046Z,60.80
2019-02-18T02:41:54.709Z,61.30
2019-02-18T02:44:23.325Z,61.30
2019-02-18T02:46:52.799Z,61.50
2019-02-18T02:49:21.352Z,61.60
2019-02-18T02:51:49.892Z,62.10
2019-02-18T02:54:19.178Z,62.20
2019-02-18T02:56:47.802Z,62.00
2019-02-18T02:59:16.522Z,62.00
2019-02-18T03:01:45.233Z,62.20
2019-02-18T03:04:13.778Z,62.60
2019-02-18T03:06:42.302Z,62.70
2019-02-18T03:09:10.881Z,62.80
2019-02-18T03:11:39.426Z,62.80
2019-02-18T03:14:08.048Z,62.80
2019-02-18T03:16:36.733Z,63.40
2019-02-18T03:19:05.346Z,63.20
2019-02-18T03:21:34.917Z,63.40
2019-02-18T03:24:03.454Z,64.00
2019-02-18T03:26:32.015Z,63.90
2019-02-18T03:29:18.694Z,63.80
2019-02-18T03:31:47.308Z,64.30
2019-02-18T03:34:28.302Z,64.10
2019-02-18T03:36:56.805Z,64.10
2019-02-18T03:39:25.387Z,64.80
2019-02-18T03:41:54.018Z,65.00
2019-02-18T03:44:22.545Z,65.30
2019-02-18T03:46:51.093Z,65.50
2019-02-18T03:49:19.778Z,65.70
2019-02-18T03:51:48.349Z,66.10
2019-02-18T03:54:16.895Z,66.50
2019-02-18T03:56:45.788Z,66.70
2019-02-18T03:59:14.462Z,66.90
2019-02-18T04:01:43.151Z,66.90
2019-02-18T04:04:11.824Z,66.90
2019-02-18T04:06:40.451Z,67.60
2019-02-18T04:09:09.081Z,67.90
2019-02-18T04:11:37.774Z,67.80
2019-02-18T04:14:06.435Z,68.00
2019-02-18T04:16:34.966Z,67.90
2019-02-18T04:19:03.541Z,67.50
2019-02-18T04:21:32.144Z,66.60
2019-02-18T04:24:00.695Z,66.30
2019-02-18T04:26:29.300Z,65.60
2019-02-18T04:28:57.871Z,65.60
2019-02-18T04:31:26.418Z,65.80
2019-02-18T04:33:55.117Z,66.30
2019-02-18T04:36:23.818Z,66.80
2019-02-18T04:38:59.662Z,66.10
2019-02-18T04:41:28.205Z,66.00
2019-02-18T04:43:56.821Z,65.70
2019-02-18T04:46:25.380Z,66.10
2019-02-18T04:48:54.015Z,65.80
2019-02-18T04:51:31.101Z,65.90
2019-02-18T04:53:59.721Z,66.50
2019-02-18T04:56:28.357Z,66.10
2019-02-18T04:58:56.991Z,66.50
2019-02-18T05:01:25.651Z,66.60
2019-02-18T05:03:54.322Z,66.60
2019-02-18T05:06:25.377Z,66.90
2019-02-18T05:08:53.206Z,67.20
2019-02-18T05:11:21.802Z,67.20
2019-02-18T05:13:50.335Z,67.10
2019-02-18T05:16:19.024Z,67.30
2019-02-18T05:18:47.732Z,67.10
2019-02-18T05:21:16.301Z,65.70
2019-02-18T05:23:44.837Z,63.90
2019-02-18T05:26:13.460Z,62.50
2019-02-18T05:28:42.059Z,62.10
2019-02-18T05:31:10.604Z,62.90
2019-02-18T05:33:39.189Z,62.20
2019-02-18T05:36:07.802Z,62.10
2019-02-18T05:38:36.376Z,61.30
2019-02-18T05:41:05.094Z,61.60
2019-02-18T05:43:33.675Z,62.30
2019-02-18T05:46:02.300Z,62.30
2019-02-18T05:48:33.790Z,62.80
2019-02-18T05:51:01.105Z,62.30
2019-02-18T05:53:29.839Z,63.20
2019-02-18T05:55:58.538Z,63.40
2019-02-18T05:58:27.185Z,63.80
2019-02-18T06:00:55.727Z,64.20
2019-02-18T06:03:24.510Z,64.70
2019-02-18T06:05:53.052Z,65.20
2019-02-18T06:08:21.736Z,65.50
2019-02-18T06:10:51.051Z,65.60
2019-02-18T06:13:19.696Z,66.10
2019-02-18T06:15:48.278Z,65.50
2019-02-18T06:18:16.833Z,65.10
2019-02-18T06:20:45.300Z,65.50
2019-02-18T06:23:14.269Z,65.00
2019-02-18T06:25:42.955Z,64.40
2019-02-18T06:28:11.526Z,64.90
2019-02-18T06:30:40.233Z,65.20
2019-02-18T06:33:08.799Z,65.60
2019-02-18T06:35:40.064Z,65.00
2019-02-18T06:38:08.826Z,64.40
2019-02-18T06:40:37.555Z,64.20
2019-02-18T06:43:06.251Z,64.00
2019-02-18T06:45:37.443Z,63.60
2019-02-18T06:48:08.905Z,61.50
2019-02-18T06:50:37.594Z,61.80
2019-02-18T06:53:06.223Z,61.10
2019-02-18T06:55:34.987Z,61.30
2019-02-18T06:58:07.760Z,59.60
2019-02-18T07:00:40.549Z,59.80
2019-02-18T07:03:23.018Z,58.80
2019-02-18T07:05:55.722Z,57.90
2019-02-18T07:08:28.849Z,57.00
2019-02-18T07:13:53.025Z,56.80
2019-02-18T07:16:21.730Z,56.30
2019-02-18T07:18:50.368Z,56.40
2019-02-18T07:21:19.141Z,55.60
2019-02-18T07:23:47.774Z,55.00
2019-02-18T07:26:16.580Z,54.00
2019-02-18T07:28:45.231Z,53.50
2019-02-18T07:31:13.895Z,53.10
2019-02-18T07:33:42.499Z,53.10
2019-02-18T07:36:11.366Z,52.60
2019-02-18T07:38:39.979Z,52.30
2019-02-18T07:41:08.813Z,55.30
2019-02-18T07:43:37.475Z,51.80
2019-02-18T07:46:06.107Z,52.50
2019-02-18T07:48:36.718Z,52.20
2019-02-18T07:51:05.161Z,51.80
2019-02-18T07:53:33.935Z,51.80
2019-02-18T07:56:02.682Z,51.10
2019-02-18T07:58:31.481Z,52.20
2019-02-18T08:01:00.431Z,50.10
2019-02-18T08:03:29.187Z,50.10
2019-02-18T08:05:57.850Z,49.40
2019-02-18T08:08:27.093Z,48.90
2019-02-18T08:10:55.810Z,48.00
2019-02-18T08:13:26.745Z,47.70
2019-02-18T08:15:54.765Z,45.30
2019-02-18T08:18:23.647Z,44.10
2019-02-18T08:20:54.872Z,42.90
2019-02-18T08:23:25.688Z,43.10
2019-02-18T08:25:54.496Z,42.80
2019-02-18T08:28:23.150Z,41.50
2019-02-18T08:30:51.801Z,40.20
2019-02-18T08:33:20.404Z,40.90
2019-02-18T08:35:49.042Z,41.30
2019-02-18T08:38:17.727Z,39.10
2019-02-18T08:40:46.957Z,38.10
2019-02-18T08:43:15.605Z,37.50
2019-02-18T08:45:44.351Z,37.90
2019-02-18T08:48:13.089Z,37.10
2019-02-18T08:50:41.866Z,37.10
2019-02-18T08:53:10.430Z,36.20
2019-02-18T08:55:39.089Z,36.90
2019-02-18T08:58:07.650Z,34.10
2019-02-18T09:00:36.407Z,33.50
2019-02-18T09:03:05.048Z,32.40
2019-02-18T09:05:33.687Z,37.50
2019-02-18T09:08:02.519Z,37.40
2019-02-18T09:10:33.818Z,36.10
2019-02-18T09:13:01.489Z,35.90
2019-02-18T09:15:30.308Z,37.20
2019-02-18T09:17:58.895Z,36.30
2019-02-18T09:20:27.590Z,34.30
2019-02-18T09:23:00.778Z,33.40
2019-02-18T09:25:37.034Z,31.10
2019-02-18T09:28:05.836Z,32.40
2019-02-18T09:30:36.087Z,30.70
2019-02-18T09:33:05.073Z,30.10
2019-02-18T09:35:33.977Z,30.50
2019-02-18T09:38:02.733Z,31.00
2019-02-18T09:40:32.306Z,32.10
2019-02-18T09:43:01.078Z,30.00
2019-02-18T09:45:29.808Z,32.00
2019-02-18T09:47:58.529Z,28.40
2019-02-18T09:50:27.237Z,29.00
2019-02-18T09:52:55.838Z,28.90
2019-02-18T09:55:24.595Z,28.60
2019-02-18T09:57:53.290Z,27.60
2019-02-18T10:00:21.991Z,27.10
2019-02-18T10:02:50.694Z,28.40
2019-02-18T10:05:19.779Z,27.00
2019-02-18T10:07:48.594Z,27.40
2019-02-18T10:10:19.159Z,25.80
2019-02-18T10:12:47.842Z,25.00
2019-02-18T10:15:16.619Z,25.10
2019-02-18T10:17:45.369Z,26.70
2019-02-18T10:20:14.703Z,25.80
2019-02-18T10:22:43.424Z,24.10
2019-02-18T10:25:13.387Z,23.80
2019-02-18T10:27:42.076Z,25.20
2019-02-18T10:30:12.463Z,24.00
2019-02-18T10:32:41.033Z,22.70
2019-02-18T10:35:14.151Z,26.70
2019-02-18T10:37:43.243Z,21.70
2019-02-18T10:40:12.476Z,21.40
2019-02-18T10:42:41.187Z,21.80
2019-02-18T10:45:12.466Z,20.20
2019-02-18T10:47:41.210Z,19.60
2019-02-18T10:50:11.711Z,20.20
2019-02-18T10:52:40.539Z,20.60
2019-02-18T10:55:10.417Z,21.50
2019-02-18T10:57:39.571Z,20.70
2019-02-18T11:00:13.551Z,20.90
2019-02-18T11:02:42.206Z,19.50
2019-02-18T11:05:10.965Z,19.60
2019-02-18T11:07:39.653Z,19.50
2019-02-18T11:10:15.684Z,19.10
2019-02-18T11:12:44.423Z,20.40
2019-02-18T11:15:14.123Z,20.20
2019-02-18T11:17:43.156Z,20.70
2019-02-18T11:20:13.157Z,19.80
2019-02-18T11:22:42.866Z,19.20
2019-02-18T11:25:14.630Z,18.70
2019-02-18T11:27:43.339Z,18.20
2019-02-18T11:30:19.414Z,17.50
2019-02-18T11:32:51.153Z,18.80
2019-02-18T11:35:19.827Z,18.60
2019-02-18T11:37:48.510Z,19.20
2019-02-18T11:40:18.275Z,18.20
2019-02-18T11:42:47.010Z,16.70
2019-02-18T11:45:16.800Z,18.30
2019-02-18T11:47:45.479Z,18.80
2019-02-18T11:50:15.726Z,18.50
2019-02-18T11:52:44.450Z,19.00
2019-02-18T11:55:13.914Z,20.60
2019-02-18T11:57:42.890Z,18.80
2019-02-18T12:00:15.822Z,19.30
2019-02-18T12:02:44.390Z,19.90
2019-02-18T12:05:13.286Z,17.70
2019-02-18T12:07:41.985Z,17.50
2019-02-18T12:10:12.761Z,18.50
2019-02-18T12:12:41.713Z,18.70
2019-02-18T12:15:13.337Z,17.80
2019-02-18T12:17:42.130Z,17.60
2019-02-18T12:20:18.189Z,18.00
2019-02-18T12:23:06.218Z,18.70
2019-02-18T12:25:34.811Z,20.90
2019-02-18T12:28:03.472Z,22.60
2019-02-18T12:30:32.579Z,23.90
2019-02-18T12:33:01.351Z,24.20
2019-02-18T12:35:31.423Z,24.60
2019-02-18T12:38:00.214Z,25.60
2019-02-18T12:40:28.979Z,25.90
2019-02-18T12:43:02.371Z,27.20
2019-02-18T12:45:31.070Z,27.60
2019-02-18T12:47:59.895Z,28.50
2019-02-18T12:50:28.679Z,30.50
2019-02-18T12:52:57.522Z,31.10
2019-02-18T12:55:26.251Z,31.40
2019-02-18T12:57:56.670Z,32.00
2019-02-18T13:00:25.693Z,32.30
2019-02-18T13:02:54.490Z,33.20
2019-02-18T13:05:23.613Z,34.30
2019-02-18T13:07:52.347Z,34.40
2019-02-18T13:10:21.354Z,33.50
2019-02-18T13:12:50.106Z,33.00
2019-02-18T13:15:19.025Z,33.30
2019-02-18T13:17:47.683Z,33.30
2019-02-18T13:20:16.388Z,33.60
2019-02-18T13:22:45.009Z,33.30
2019-02-18T13:25:13.898Z,33.10
2019-02-18T13:27:42.744Z,33.10
2019-02-18T13:30:14.016Z,33.00
2019-02-18T13:32:42.714Z,33.40
2019-02-18T13:35:11.381Z,33.20
2019-02-18T13:37:40.150Z,33.00
2019-02-18T13:40:09.461Z,33.00
2019-02-18T13:42:38.059Z,33.10
2019-02-18T13:45:08.250Z,32.10
2019-02-18T13:47:36.962Z,32.50
2019-02-18T13:50:11.331Z,32.50
2019-02-18T13:52:40.085Z,32.60
2019-02-18T13:55:11.394Z,32.70
2019-02-18T13:57:40.773Z,31.80
2019-02-18T14:00:18.832Z,32.10
2019-02-18T14:02:48.225Z,32.10
2019-02-18T14:05:17.911Z,32.20
2019-02-18T14:07:46.724Z,31.90
2019-02-18T14:10:16.625Z,32.30
2019-02-18T14:12:47.645Z,32.30
2019-02-18T14:15:17.434Z,32.30
2019-02-18T14:17:46.318Z,32.00
2019-02-18T14:20:17.026Z,31.90
2019-02-18T14:22:46.086Z,31.80
2019-02-18T14:25:15.445Z,31.50
2019-02-18T14:27:46.120Z,32.00
2019-02-18T14:30:16.855Z,32.50
2019-02-18T14:32:45.610Z,35.10
2019-02-18T14:35:16.405Z,36.20
2019-02-18T14:37:45.629Z,36.60
2019-02-18T14:40:17.646Z,37.10
2019-02-18T14:42:46.440Z,36.50
2019-02-18T14:45:15.713Z,35.50
2019-02-18T14:47:44.426Z,35.30
2019-02-18T14:50:14.910Z,35.50
2019-02-18T14:52:43.822Z,36.40
2019-02-18T14:55:12.636Z,36.80
2019-02-18T14:57:41.366Z,36.80
2019-02-18T15:00:17.010Z,36.50
2019-02-18T15:02:45.734Z,36.50
2019-02-18T15:05:14.677Z,36.40
2019-02-18T15:07:43.788Z,35.90
2019-02-18T15:10:13.670Z,36.50
2019-02-18T15:12:42.329Z,37.30
2019-02-18T15:15:11.247Z,37.30
2019-02-18T15:17:39.850Z,38.00
2019-02-18T15:20:09.160Z,38.70
2019-02-18T15:22:38.849Z,39.00
2019-02-18T15:25:09.402Z,39.70
2019-02-18T15:27:38.154Z,40.70
2019-02-18T15:30:16.153Z,41.20
2019-02-18T15:32:45.007Z,40.50
2019-02-18T15:35:15.164Z,41.10
2019-02-18T15:37:43.834Z,41.10
2019-02-18T15:40:14.208Z,41.00
2019-02-18T15:42:42.862Z,41.30
2019-02-18T15:45:12.536Z,41.60
2019-02-18T15:47:41.279Z,41.40
2019-02-18T15:50:12.030Z,42.00
2019-02-18T15:52:40.678Z,41.50
2019-02-18T15:55:10.796Z,41.90
2019-02-18T15:57:39.495Z,42.20
2019-02-18T16:00:17.827Z,42.90
2019-02-18T16:02:46.838Z,41.90
2019-02-18T16:05:15.649Z,41.70
2019-02-18T16:07:44.332Z,41.90
2019-02-18T16:10:14.030Z,42.00
2019-02-18T16:12:50.232Z,42.30
2019-02-18T16:15:13.080Z,42.00
2019-02-18T16:17:42.102Z,42.30
2019-02-18T16:20:12.693Z,42.20
2019-02-18T16:22:41.359Z,42.30
2019-02-18T16:25:13.080Z,42.60
2019-02-18T16:27:41.656Z,42.70
2019-02-18T16:30:13.015Z,43.00
2019-02-18T16:32:42.020Z,43.10
2019-02-18T16:35:11.450Z,43.80
2019-02-18T16:37:40.426Z,43.80
2019-02-18T16:40:14.534Z,43.90
2019-02-18T16:42:43.170Z,44.20
2019-02-18T16:45:13.980Z,44.50
2019-02-18T16:47:42.668Z,44.40
2019-02-18T16:50:11.531Z,44.70
2019-02-18T16:52:40.122Z,44.50
2019-02-18T16:55:11.102Z,44.70
2019-02-18T16:57:39.736Z,45.00
2019-02-18T17:00:21.964Z,45.10
2019-02-18T17:02:51.101Z,45.50
2019-02-18T17:05:19.937Z,46.10
2019-02-18T17:07:48.721Z,46.40
2019-02-18T17:10:17.413Z,47.20
2019-02-18T17:12:46.513Z,47.30
2019-02-18T17:15:15.254Z,47.70
2019-02-18T17:17:44.478Z,48.10
2019-02-18T17:20:13.295Z,48.80
2019-02-18T17:22:42.055Z,49.70
2019-02-18T17:25:12.289Z,50.50
2019-02-18T17:27:40.984Z,51.10
2019-02-18T17:30:14.958Z,51.60
2019-02-18T17:32:43.807Z,51.70
2019-02-18T17:35:14.008Z,52.30
2019-02-18T17:37:42.637Z,52.60
2019-02-18T17:40:16.126Z,53.00
2019-02-18T17:42:45.211Z,53.30
2019-02-18T17:45:16.002Z,53.70
2019-02-18T17:47:44.712Z,54.10
2019-02-18T17:50:17.233Z,54.50
2019-02-18T17:52:46.629Z,54.80
2019-02-18T17:55:16.963Z,55.20
2019-02-18T17:57:45.699Z,55.20
2019-02-18T18:00:22.919Z,55.50
2019-02-18T18:02:51.744Z,55.60
2019-02-18T18:05:20.466Z,55.70
2019-02-18T18:07:49.194Z,56.00
2019-02-18T18:10:19.457Z,56.40
2019-02-18T18:12:48.186Z,56.20
2019-02-18T18:15:18.483Z,56.60
2019-02-18T18:17:58.611Z,56.80
2019-02-18T18:20:28.068Z,57.00
2019-02-18T18:22:57.165Z,57.20
2019-02-18T18:25:25.855Z,57.50
2019-02-18T18:27:54.533Z,57.60
2019-02-18T18:30:23.163Z,57.80
2019-02-18T18:32:51.872Z,57.90
2019-02-18T18:35:20.559Z,58.40
2019-02-18T18:37:49.185Z,58.50
2019-02-18T18:40:20.183Z,59.10
2019-02-18T18:42:48.825Z,59.40
2019-02-18T18:45:18.326Z,58.50
2019-02-18T18:47:46.983Z,58.50
2019-02-18T18:50:27.290Z,58.70
2019-02-18T18:52:56.159Z,58.30
2019-02-18T18:55:24.882Z,58.40
2019-02-18T18:57:53.597Z,57.30
2019-02-18T19:00:25.783Z,58.20
2019-02-18T19:02:54.477Z,56.60
2019-02-18T19:05:23.564Z,56.80
2019-02-18T19:07:52.255Z,58.60
2019-02-18T19:10:20.949Z,57.00
2019-02-18T19:12:49.604Z,57.10
2019-02-18T19:15:20.950Z,56.90
2019-02-18T19:17:49.919Z,57.30
2019-02-18T19:20:18.553Z,57.70
2019-02-18T19:22:47.189Z,57.80
2019-02-18T19:25:15.924Z,56.20
2019-02-18T19:27:44.605Z,55.40
2019-02-18T19:30:24.890Z,55.50
2019-02-18T19:32:53.644Z,55.70
2019-02-18T19:35:22.281Z,56.30
2019-02-18T19:37:51.142Z,56.30
2019-02-18T19:40:19.908Z,56.50
2019-02-18T19:42:48.519Z,55.00
2019-02-18T19:45:24.664Z,57.00
2019-02-18T19:47:53.304Z,55.70
2019-02-18T19:50:22.077Z,54.80
2019-02-18T19:52:50.620Z,56.40
2019-02-18T19:55:19.404Z,57.70
2019-02-18T19:57:48.546Z,57.10
2019-02-18T20:00:19.101Z,57.20
2019-02-18T20:02:48.038Z,57.00
2019-02-18T20:05:16.818Z,57.20
2019-02-18T20:07:45.506Z,56.70
2019-02-18T20:10:14.348Z,57.80
2019-02-18T20:12:42.976Z,57.90
2019-02-18T20:15:16.632Z,58.00
2019-02-18T20:17:45.342Z,57.90
2019-02-18T20:20:16.379Z,58.30
2019-02-18T20:22:45.172Z,58.70
2019-02-18T20:25:13.952Z,58.60
2019-02-18T20:27:42.734Z,58.30
2019-02-18T20:30:16.056Z,59.00
2019-02-18T20:32:44.816Z,59.50
2019-02-18T20:35:13.739Z,58.90
2019-02-18T20:37:42.359Z,58.50
2019-02-18T20:40:11.747Z,59.10
2019-02-18T20:42:40.685Z,59.50
2019-02-18T20:45:12.299Z,59.50
2019-02-18T20:47:41.019Z,60.10
2019-02-18T20:50:11.777Z,59.50
2019-02-18T20:52:40.533Z,59.90
2019-02-18T20:55:11.794Z,59.40
2019-02-18T20:57:40.504Z,59.80
2019-02-18T21:00:14.633Z,60.30
2019-02-18T21:02:43.229Z,60.70
2019-02-18T21:05:11.860Z,60.40
2019-02-18T21:07:40.540Z,60.40
2019-02-18T21:10:17.671Z,60.70
2019-02-18T21:12:46.433Z,60.60
2019-02-18T21:15:15.201Z,61.10
2019-02-18T21:17:43.791Z,61.80
2019-02-18T21:20:13.891Z,60.90
2019-02-18T21:22:42.497Z,61.40
2019-02-18T21:25:11.619Z,61.80
2019-02-18T21:27:40.241Z,61.80
2019-02-18T21:30:14.618Z,62.10
2019-02-18T21:32:43.158Z,62.30
2019-02-18T21:35:11.980Z,62.10
2019-02-18T21:37:41.095Z,61.60
2019-02-18T21:40:10.903Z,61.60
2019-02-18T21:42:39.526Z,61.80
2019-02-18T21:45:13.152Z,61.70
2019-02-18T21:47:41.846Z,61.60
2019-02-18T21:50:11.433Z,60.50
2019-02-18T21:52:40.423Z,60.40
2019-02-18T21:55:10.622Z,58.80
2019-02-18T21:57:39.278Z,58.00
2019-02-18T22:00:12.640Z,57.90
2019-02-18T22:02:41.325Z,57.90
2019-02-18T22:05:10.062Z,58.20
2019-02-18T22:07:38.687Z,58.80
2019-02-18T22:10:09.138Z,58.20
2019-02-18T22:12:37.883Z,58.00
2019-02-18T22:15:08.388Z,57.50
2019-02-18T22:17:37.429Z,57.30
2019-02-18T22:20:08.936Z,57.20
2019-02-18T22:22:37.781Z,57.30
2019-02-18T22:25:09.520Z,57.30
2019-02-18T22:27:38.738Z,57.50
2019-02-18T22:30:13.246Z,57.40
2019-02-18T22:32:41.955Z,57.80
2019-02-18T22:35:10.753Z,57.90
2019-02-18T22:37:39.516Z,57.90
2019-02-18T22:40:10.154Z,58.20
2019-02-18T22:42:38.836Z,58.90
2019-02-18T22:45:10.069Z,58.30
2019-02-18T22:47:38.788Z,58.70
2019-02-18T22:50:10.263Z,58.70
2019-02-18T22:52:38.963Z,58.70
2019-02-18T22:55:09.635Z,58.70
2019-02-18T22:57:38.273Z,58.20
2019-02-18T23:00:28.288Z,58.20
2019-02-18T23:02:57.229Z,57.80
2019-02-18T23:05:25.938Z,58.20
2019-02-18T23:07:54.562Z,57.80
2019-02-18T23:10:23.447Z,57.40
2019-02-18T23:12:52.011Z,58.00
2019-02-18T23:15:20.678Z,57.70
2019-02-18T23:17:49.247Z,57.90
2019-02-18T23:20:17.835Z,58.10
2019-02-18T23:22:46.496Z,58.20
2019-02-18T23:25:15.123Z,58.50
2019-02-18T23:27:43.685Z,59.00
2019-02-18T23:30:12.385Z,59.00
2019-02-18T23:32:41.059Z,58.80
2019-02-18T23:35:10.128Z,58.80
2019-02-18T23:37:38.657Z,59.30
2019-02-18T23:40:07.392Z,59.60
2019-02-18T23:42:36.429Z,59.60
2019-02-18T23:45:05.220Z,59.50
2019-02-18T23:47:33.754Z,59.80
2019-02-18T23:50:02.410Z,60.00
2019-02-18T23:52:30.921Z,59.70
2019-02-18T23:54:59.442Z,59.50
2019-02-18T23:57:28.542Z,59.20
2019-02-18T23:59:57.070Z,59.10
